sensor_id;sensor_type;location;lat;lon;timestamp;pressure;altitude;pressure_sealevel;temperature;humidity
7180;BME280;3631;42.152;24.756;2023-03-04T00:02:21;99485.63;;;5.46;100.00
7180;BME280;3631;42.152;24.756;2023-03-04T00:04:48;99487.34;;;5.46;100.00
7180;BME280;3631;42.152;24.756;2023-03-04T00:07:17;99488.22;;;5.45;100.00
7180;BME280;3631;42.152;24.756;2023-03-04T00:09:44;99483.94;;;5.44;100.00
7180;BME280;3631;42.152;24.756;2023-03-04T00:12:11;99475.31;;;5.48;100.00
7180;BME280;3631;42.152;24.756;2023-03-04T00:14:38;99478.00;;;5.39;100.00
7180;BME280;3631;42.152;24.756;2023-03-04T00:17:05;99475.34;;;5.45;100.00
7180;BME280;3631;42.152;24.756;2023-03-04T00:19:32;99479.63;;;5.49;100.00
7180;BME280;3631;42.152;24.756;2023-03-04T00:22:00;99462.44;;;5.51;100.00
7180;BME280;3631;42.152;24.756;2023-03-04T00:24:28;99469.25;;;5.55;100.00
7180;BME280;3631;42.152;24.756;2023-03-04T00:26:55;99480.47;;;5.48;100.00
7180;BME280;3631;42.152;24.756;2023-03-04T00:29:22;99483.06;;;5.43;100.00
7180;BME280;3631;42.152;24.756;2023-03-04T00:31:49;99482.28;;;5.37;100.00
7180;BME280;3631;42.152;24.756;2023-03-04T00:34:16;99479.75;;;5.31;100.00
7180;BME280;3631;42.152;24.756;2023-03-04T00:36:43;99474.56;;;5.35;100.00
7180;BME280;3631;42.152;24.756;2023-03-04T00:39:10;99474.50;;;5.43;100.00
7180;BME280;3631;42.152;24.756;2023-03-04T00:41:39;99471.94;;;5.43;100.00
7180;BME280;3631;42.152;24.756;2023-03-04T00:44:06;99458.16;;;5.47;100.00
7180;BME280;3631;42.152;24.756;2023-03-04T00:46:33;99460.75;;;5.48;100.00
7180;BME280;3631;42.152;24.756;2023-03-04T00:49:00;99448.88;;;5.31;100.00
7180;BME280;3631;42.152;24.756;2023-03-04T00:51:27;99462.56;;;5.34;100.00
7180;BME280;3631;42.152;24.756;2023-03-04T00:53:54;99470.28;;;5.39;100.00
7180;BME280;3631;42.152;24.756;2023-03-04T00:56:20;99466.81;;;5.41;100.00
7180;BME280;3631;42.152;24.756;2023-03-04T00:58:49;99465.13;;;5.36;100.00
7180;BME280;3631;42.152;24.756;2023-03-04T01:01:16;99476.31;;;5.32;100.00
7180;BME280;3631;42.152;24.756;2023-03-04T01:03:42;99474.66;;;5.28;100.00
7180;BME280;3631;42.152;24.756;2023-03-04T01:06:10;99460.00;;;5.34;100.00
7180;BME280;3631;42.152;24.756;2023-03-04T01:08:37;99475.34;;;5.45;100.00
7180;BME280;3631;42.152;24.756;2023-03-04T01:11:04;99461.50;;;5.57;100.00
7180;BME280;3631;42.152;24.756;2023-03-04T01:13:31;99464.09;;;5.55;100.00
7180;BME280;3631;42.152;24.756;2023-03-04T01:15:59;99462.38;;;5.56;100.00
7180;BME280;3631;42.152;24.756;2023-03-04T01:18:27;99462.44;;;5.50;100.00
7180;BME280;3631;42.152;24.756;2023-03-04T01:20:54;99458.06;;;5.61;100.00
7180;BME280;3631;42.152;24.756;2023-03-04T01:23:21;99448.69;;;5.52;100.00
7180;BME280;3631;42.152;24.756;2023-03-04T01:25:48;99455.59;;;5.45;100.00
7180;BME280;3631;42.152;24.756;2023-03-04T01:28:15;99448.72;;;5.47;100.00
7180;BME280;3631;42.152;24.756;2023-03-04T01:30:42;99454.66;;;5.54;100.00
7180;BME280;3631;42.152;24.756;2023-03-04T01:33:10;99444.47;;;5.45;100.00
7180;BME280;3631;42.152;24.756;2023-03-04T01:35:37;99450.34;;;5.56;100.00
7180;BME280;3631;42.152;24.756;2023-03-04T01:38:04;99447.78;;;5.56;100.00
7180;BME280;3631;42.152;24.756;2023-03-04T01:40:31;99443.50;;;5.55;100.00
7180;BME280;3631;42.152;24.756;2023-03-04T01:42:58;99450.38;;;5.55;100.00
7180;BME280;3631;42.152;24.756;2023-03-04T01:45:25;99444.34;;;5.56;100.00
7180;BME280;3631;42.152;24.756;2023-03-04T01:47:52;99446.13;;;5.52;100.00
7180;BME280;3631;42.152;24.756;2023-03-04T01:50:25;99449.50;;;5.56;100.00
7180;BME280;3631;42.152;24.756;2023-03-04T01:52:53;99441.78;;;5.57;100.00
7180;BME280;3631;42.152;24.756;2023-03-04T01:55:21;99442.63;;;5.56;100.00
7180;BME280;3631;42.152;24.756;2023-03-04T01:57:49;99436.75;;;5.42;100.00
7180;BME280;3631;42.152;24.756;2023-03-04T02:00:23;99424.69;;;5.50;100.00
7180;BME280;3631;42.152;24.756;2023-03-04T02:02:52;99421.31;;;5.43;100.00
7180;BME280;3631;42.152;24.756;2023-03-04T02:05:22;99430.69;;;5.52;100.00
7180;BME280;3631;42.152;24.756;2023-03-04T02:07:50;99447.97;;;5.39;100.00
7180;BME280;3631;42.152;24.756;2023-03-04T02:10:18;99439.41;;;5.36;100.00
7180;BME280;3631;42.152;24.756;2023-03-04T02:12:45;99432.53;;;5.35;100.00
7180;BME280;3631;42.152;24.756;2023-03-04T02:15:12;99431.66;;;5.39;100.00
7180;BME280;3631;42.152;24.756;2023-03-04T02:17:39;99434.22;;;5.39;100.00
7180;BME280;3631;42.152;24.756;2023-03-04T02:20:14;99432.53;;;5.36;100.00
7180;BME280;3631;42.152;24.756;2023-03-04T02:22:54;99424.06;;;5.24;100.00
7180;BME280;3631;42.152;24.756;2023-03-04T02:25:30;99423.97;;;5.34;100.00
7180;BME280;3631;42.152;24.756;2023-03-04T02:28:00;99427.28;;;5.45;100.00
7180;BME280;3631;42.152;24.756;2023-03-04T02:30:27;99428.97;;;5.51;100.00
7180;BME280;3631;42.152;24.756;2023-03-04T02:32:54;99424.63;;;5.55;100.00
7180;BME280;3631;42.152;24.756;2023-03-04T02:35:21;99423.81;;;5.51;100.00
7180;BME280;3631;42.152;24.756;2023-03-04T02:37:48;99420.41;;;5.49;100.00
7180;BME280;3631;42.152;24.756;2023-03-04T02:40:20;99412.69;;;5.49;100.00
7180;BME280;3631;42.152;24.756;2023-03-04T02:42:49;99413.66;;;5.39;100.00
7180;BME280;3631;42.152;24.756;2023-03-04T02:45:45;99412.84;;;5.31;100.00
7180;BME280;3631;42.152;24.756;2023-03-04T02:48:14;99412.94;;;5.23;100.00
7180;BME280;3631;42.152;24.756;2023-03-04T02:50:43;99408.66;;;5.21;100.00
7180;BME280;3631;42.152;24.756;2023-03-04T02:53:11;99407.88;;;5.14;100.00
7180;BME280;3631;42.152;24.756;2023-03-04T02:55:38;99403.59;;;5.11;100.00
7180;BME280;3631;42.152;24.756;2023-03-04T02:58:06;99402.69;;;5.17;100.00
7180;BME280;3631;42.152;24.756;2023-03-04T03:00:33;99407.78;;;5.25;100.00
7180;BME280;3631;42.152;24.756;2023-03-04T03:03:02;99419.84;;;5.17;100.00
7180;BME280;3631;42.152;24.756;2023-03-04T03:05:30;99419.09;;;5.05;100.00
7180;BME280;3631;42.152;24.756;2023-03-04T03:07:57;99426.81;;;5.05;100.00
7180;BME280;3631;42.152;24.756;2023-03-04T03:10:25;99429.34;;;5.08;100.00
7180;BME280;3631;42.152;24.756;2023-03-04T03:12:52;99432.00;;;4.98;100.00
7180;BME280;3631;42.152;24.756;2023-03-04T03:15:19;99427.75;;;4.95;100.00
7180;BME280;3631;42.152;24.756;2023-03-04T03:17:46;99432.91;;;4.94;100.00
7180;BME280;3631;42.152;24.756;2023-03-04T03:20:15;99439.75;;;4.93;100.00
7180;BME280;3631;42.152;24.756;2023-03-04T03:22:42;99431.22;;;4.88;100.00
7180;BME280;3631;42.152;24.756;2023-03-04T03:25:11;99438.84;;;4.97;100.00
7180;BME280;3631;42.152;24.756;2023-03-04T03:27:38;99406.44;;;4.78;100.00
7180;BME280;3631;42.152;24.756;2023-03-04T03:30:06;99448.25;;;5.01;100.00
7180;BME280;3631;42.152;24.756;2023-03-04T03:32:35;99446.56;;;4.97;100.00
7180;BME280;3631;42.152;24.756;2023-03-04T03:35:02;99451.72;;;4.97;100.00
7180;BME280;3631;42.152;24.756;2023-03-04T03:37:31;99447.41;;;5.04;100.00
7180;BME280;3631;42.152;24.756;2023-03-04T03:39:57;99444.84;;;5.01;100.00
7180;BME280;3631;42.152;24.756;2023-03-04T03:42:24;99444.13;;;4.82;100.00
7180;BME280;3631;42.152;24.756;2023-03-04T03:44:51;99442.44;;;4.77;100.00
7180;BME280;3631;42.152;24.756;2023-03-04T03:47:18;99435.56;;;4.83;100.00
7180;BME280;3631;42.152;24.756;2023-03-04T03:49:45;99436.41;;;4.82;100.00
7180;BME280;3631;42.152;24.756;2023-03-04T03:52:12;99435.53;;;4.85;100.00
7180;BME280;3631;42.152;24.756;2023-03-04T03:54:40;99432.13;;;4.78;100.00
7180;BME280;3631;42.152;24.756;2023-03-04T03:57:07;99434.69;;;4.84;100.00
7180;BME280;3631;42.152;24.756;2023-03-04T03:59:34;99440.69;;;4.83;100.00
7180;BME280;3631;42.152;24.756;2023-03-04T04:02:01;99439.94;;;4.63;100.00
7180;BME280;3631;42.152;24.756;2023-03-04T04:04:28;99433.97;;;4.62;100.00
7180;BME280;3631;42.152;24.756;2023-03-04T04:06:55;99426.28;;;4.58;100.00
7180;BME280;3631;42.152;24.756;2023-03-04T04:09:22;99434.84;;;4.60;100.00
7180;BME280;3631;42.152;24.756;2023-03-04T04:11:50;99434.78;;;4.69;100.00
7180;BME280;3631;42.152;24.756;2023-03-04T04:14:17;99421.88;;;4.77;100.00
7180;BME280;3631;42.152;24.756;2023-03-04T04:16:44;99427.88;;;4.74;100.00
7180;BME280;3631;42.152;24.756;2023-03-04T04:19:15;99433.06;;;4.72;100.00
7180;BME280;3631;42.152;24.756;2023-03-04T04:21:42;99440.72;;;4.75;100.00
7180;BME280;3631;42.152;24.756;2023-03-04T04:24:09;99432.97;;;4.83;100.00
7180;BME280;3631;42.152;24.756;2023-03-04T04:26:36;99440.69;;;4.80;100.00
7180;BME280;3631;42.152;24.756;2023-03-04T04:29:05;99440.66;;;4.86;100.00
7180;BME280;3631;42.152;24.756;2023-03-04T04:31:33;99450.06;;;4.87;100.00
7180;BME280;3631;42.152;24.756;2023-03-04T04:34:00;99448.38;;;4.86;100.00
7180;BME280;3631;42.152;24.756;2023-03-04T04:36:27;99453.63;;;4.71;100.00
7180;BME280;3631;42.152;24.756;2023-03-04T04:38:54;99451.06;;;4.72;100.00
7180;BME280;3631;42.152;24.756;2023-03-04T04:41:24;99447.63;;;4.70;100.00
7180;BME280;3631;42.152;24.756;2023-03-04T04:43:51;99456.97;;;4.82;100.00
7180;BME280;3631;42.152;24.756;2023-03-04T04:46:19;99448.44;;;4.74;100.00
7180;BME280;3631;42.152;24.756;2023-03-04T04:48:46;99446.72;;;4.76;100.00
7180;BME280;3631;42.152;24.756;2023-03-04T04:51:14;99449.34;;;4.73;100.00
7180;BME280;3631;42.152;24.756;2023-03-04T04:53:41;99453.63;;;4.68;100.00
7180;BME280;3631;42.152;24.756;2023-03-04T04:56:09;99462.25;;;4.62;100.00
7180;BME280;3631;42.152;24.756;2023-03-04T04:58:37;99462.34;;;4.43;100.00
7180;BME280;3631;42.152;24.756;2023-03-04T05:01:04;99454.72;;;4.26;100.00
7180;BME280;3631;42.152;24.756;2023-03-04T05:03:34;99466.66;;;4.36;100.00
7180;BME280;3631;42.152;24.756;2023-03-04T05:06:01;99461.53;;;4.36;100.00
7180;BME280;3631;42.152;24.756;2023-03-04T05:08:29;99462.41;;;4.30;100.00
7180;BME280;3631;42.152;24.756;2023-03-04T05:10:56;99466.72;;;4.24;100.00
7180;BME280;3631;42.152;24.756;2023-03-04T05:13:23;99478.72;;;4.20;100.00
7180;BME280;3631;42.152;24.756;2023-03-04T05:15:50;99467.66;;;4.00;100.00
7180;BME280;3631;42.152;24.756;2023-03-04T05:18:17;99475.34;;;4.06;100.00
7180;BME280;3631;42.152;24.756;2023-03-04T05:20:49;99477.94;;;4.01;100.00
7180;BME280;3631;42.152;24.756;2023-03-04T05:23:16;99482.28;;;3.80;100.00
7180;BME280;3631;42.152;24.756;2023-03-04T05:25:43;99478.03;;;3.45;100.00
7180;BME280;3631;42.152;24.756;2023-03-04T05:28:09;99473.75;;;3.53;100.00
7180;BME280;3631;42.152;24.756;2023-03-04T05:30:37;99478.00;;;3.63;100.00
7180;BME280;3631;42.152;24.756;2023-03-04T05:33:04;99478.88;;;3.61;100.00
7180;BME280;3631;42.152;24.756;2023-03-04T05:35:33;99494.28;;;3.59;100.00
7180;BME280;3631;42.152;24.756;2023-03-04T05:38:02;99486.59;;;3.56;100.00
7180;BME280;3631;42.152;24.756;2023-03-04T05:40:29;99474.59;;;3.64;100.00
7180;BME280;3631;42.152;24.756;2023-03-04T05:42:56;99470.31;;;3.67;100.00
7180;BME280;3631;42.152;24.756;2023-03-04T05:45:24;99461.75;;;3.68;100.00
7180;BME280;3631;42.152;24.756;2023-03-04T05:47:51;99469.47;;;3.68;100.00
7180;BME280;3631;42.152;24.756;2023-03-04T05:50:19;99479.72;;;3.64;100.00
7180;BME280;3631;42.152;24.756;2023-03-04T05:52:47;99486.59;;;3.41;100.00
7180;BME280;3631;42.152;24.756;2023-03-04T05:55:16;99470.38;;;3.27;100.00
7180;BME280;3631;42.152;24.756;2023-03-04T05:57:43;99490.88;;;3.44;100.00
7180;BME280;3631;42.152;24.756;2023-03-04T06:00:12;99488.31;;;3.45;100.00
7180;BME280;3631;42.152;24.756;2023-03-04T06:02:40;99488.28;;;3.39;100.00
7180;BME280;3631;42.152;24.756;2023-03-04T06:05:08;99492.56;;;3.40;100.00
7180;BME280;3631;42.152;24.756;2023-03-04T06:07:35;99487.44;;;3.42;100.00
7180;BME280;3631;42.152;24.756;2023-03-04T06:10:03;99496.00;;;3.54;100.00
7180;BME280;3631;42.152;24.756;2023-03-04T06:12:32;99496.84;;;3.53;100.00
7180;BME280;3631;42.152;24.756;2023-03-04T06:15:00;99497.69;;;3.61;100.00
7180;BME280;3631;42.152;24.756;2023-03-04T06:17:27;99506.25;;;3.59;100.00
7180;BME280;3631;42.152;24.756;2023-03-04T06:19:54;99501.13;;;3.60;100.00
7180;BME280;3631;42.152;24.756;2023-03-04T06:22:21;99499.38;;;3.62;100.00
7180;BME280;3631;42.152;24.756;2023-03-04T06:24:48;99494.28;;;3.70;100.00
7180;BME280;3631;42.152;24.756;2023-03-04T06:27:15;99503.66;;;3.74;100.00
7180;BME280;3631;42.152;24.756;2023-03-04T06:29:44;99490.81;;;3.79;100.00
7180;BME280;3631;42.152;24.756;2023-03-04T06:32:11;99507.03;;;3.96;100.00
7180;BME280;3631;42.152;24.756;2023-03-04T06:34:37;99513.03;;;4.06;100.00
7180;BME280;3631;42.152;24.756;2023-03-04T06:37:04;99515.56;;;4.13;100.00
7180;BME280;3631;42.152;24.756;2023-03-04T06:39:31;99513.81;;;4.24;100.00
7180;BME280;3631;42.152;24.756;2023-03-04T06:41:58;99514.63;;;4.34;100.00
7180;BME280;3631;42.152;24.756;2023-03-04T06:44:25;99524.00;;;4.46;100.00
7180;BME280;3631;42.152;24.756;2023-03-04T06:46:54;99522.25;;;4.54;100.00
7180;BME280;3631;42.152;24.756;2023-03-04T06:49:20;99517.13;;;4.52;100.00
7180;BME280;3631;42.152;24.756;2023-03-04T06:51:48;99519.63;;;4.67;100.00
7180;BME280;3631;42.152;24.756;2023-03-04T06:54:14;99526.41;;;4.81;100.00
7180;BME280;3631;42.152;24.756;2023-03-04T06:56:41;99523.78;;;4.94;100.00
7180;BME280;3631;42.152;24.756;2023-03-04T06:59:08;99526.28;;;5.06;100.00
7180;BME280;3631;42.152;24.756;2023-03-04T07:01:35;99531.34;;;5.14;100.00
7180;BME280;3631;42.152;24.756;2023-03-04T07:04:04;99529.53;;;5.30;100.00
7180;BME280;3631;42.152;24.756;2023-03-04T07:06:31;99521.75;;;5.37;100.00
7180;BME280;3631;42.152;24.756;2023-03-04T07:08:58;99531.09;;;5.51;100.00
7180;BME280;3631;42.152;24.756;2023-03-04T07:11:25;99529.28;;;5.63;100.00
7180;BME280;3631;42.152;24.756;2023-03-04T07:13:52;99534.31;;;5.74;100.00
7180;BME280;3631;42.152;24.756;2023-03-04T07:16:21;99539.38;;;5.81;100.00
7180;BME280;3631;42.152;24.756;2023-03-04T07:18:49;99532.44;;;5.93;100.00
7180;BME280;3631;42.152;24.756;2023-03-04T07:21:17;99530.59;;;6.05;100.00
7180;BME280;3631;42.152;24.756;2023-03-04T07:23:45;99533.97;;;6.12;100.00
7180;BME280;3631;42.152;24.756;2023-03-04T07:26:12;99526.19;;;6.15;100.00
7180;BME280;3631;42.152;24.756;2023-03-04T07:28:40;99532.91;;;6.31;100.00
7180;BME280;3631;42.152;24.756;2023-03-04T07:31:10;99529.34;;;6.41;100.00
7180;BME280;3631;42.152;24.756;2023-03-04T07:33:37;99528.34;;;6.54;100.00
7180;BME280;3631;42.152;24.756;2023-03-04T07:36:04;99525.63;;;6.64;100.00
7180;BME280;3631;42.152;24.756;2023-03-04T07:38:33;99529.09;;;6.63;100.00
7180;BME280;3631;42.152;24.756;2023-03-04T07:41:00;99530.81;;;6.61;100.00
7180;BME280;3631;42.152;24.756;2023-03-04T07:43:27;99528.97;;;6.72;100.00
7180;BME280;3631;42.152;24.756;2023-03-04T07:45:59;99519.38;;;6.80;100.00
7180;BME280;3631;42.152;24.756;2023-03-04T07:48:26;99520.09;;;6.89;100.00
7180;BME280;3631;42.152;24.756;2023-03-04T07:51:15;99521.03;;;6.87;100.00
7180;BME280;3631;42.152;24.756;2023-03-04T07:53:45;99511.66;;;6.80;100.00
7180;BME280;3631;42.152;24.756;2023-03-04T07:56:14;99517.59;;;6.86;100.00
7180;BME280;3631;42.152;24.756;2023-03-04T07:58:42;99515.81;;;6.88;100.00
7180;BME280;3631;42.152;24.756;2023-03-04T08:01:10;99498.00;;;6.72;100.00
7180;BME280;3631;42.152;24.756;2023-03-04T08:03:38;99509.94;;;6.79;100.00
7180;BME280;3631;42.152;24.756;2023-03-04T08:06:06;99490.28;;;6.72;100.00
7180;BME280;3631;42.152;24.756;2023-03-04T08:08:33;99516.69;;;6.89;100.00
7180;BME280;3631;42.152;24.756;2023-03-04T08:11:04;99511.47;;;6.93;100.00
7180;BME280;3631;42.152;24.756;2023-03-04T08:13:31;99502.91;;;6.90;100.00
7180;BME280;3631;42.152;24.756;2023-03-04T08:15:58;99503.88;;;6.83;100.00
7180;BME280;3631;42.152;24.756;2023-03-04T08:18:26;99511.59;;;6.86;100.00
7180;BME280;3631;42.152;24.756;2023-03-04T08:20:52;99506.22;;;7.00;100.00
7180;BME280;3631;42.152;24.756;2023-03-04T08:23:19;99523.19;;;7.16;100.00
7180;BME280;3631;42.152;24.756;2023-03-04T08:25:46;99491.66;;;6.96;100.00
7180;BME280;3631;42.152;24.756;2023-03-04T08:28:15;99527.56;;;7.11;100.00
7180;BME280;3631;42.152;24.756;2023-03-04T08:30:43;99517.97;;;7.20;100.00
7180;BME280;3631;42.152;24.756;2023-03-04T08:33:09;99520.22;;;7.42;100.00
7180;BME280;3631;42.152;24.756;2023-03-04T08:35:37;99526.09;;;7.50;100.00
7180;BME280;3631;42.152;24.756;2023-03-04T08:38:04;99531.84;;;7.67;100.00
7180;BME280;3631;42.152;24.756;2023-03-04T08:40:31;99523.81;;;7.82;100.00
7180;BME280;3631;42.152;24.756;2023-03-04T08:42:58;99517.69;;;7.89;100.00
7180;BME280;3631;42.152;24.756;2023-03-04T08:45:26;99523.31;;;8.10;100.00
7180;BME280;3631;42.152;24.756;2023-03-04T08:47:53;99523.19;;;8.16;100.00
7180;BME280;3631;42.152;24.756;2023-03-04T08:50:20;99527.66;;;8.08;100.00
7180;BME280;3631;42.152;24.756;2023-03-04T08:52:47;99525.72;;;8.20;100.00
7180;BME280;3631;42.152;24.756;2023-03-04T08:55:14;99527.19;;;8.35;100.00
7180;BME280;3631;42.152;24.756;2023-03-04T08:57:41;99525.38;;;8.38;100.00
7180;BME280;3631;42.152;24.756;2023-03-04T09:00:09;99524.44;;;8.43;100.00
7180;BME280;3631;42.152;24.756;2023-03-04T09:02:38;99515.69;;;8.48;100.00
7180;BME280;3631;42.152;24.756;2023-03-04T09:05:06;99514.41;;;8.24;100.00
7180;BME280;3631;42.152;24.756;2023-03-04T09:07:33;99506.78;;;8.18;100.00
7180;BME280;3631;42.152;24.756;2023-03-04T09:10:00;99500.53;;;8.31;100.00
7180;BME280;3631;42.152;24.756;2023-03-04T09:12:27;99505.22;;;8.56;100.00
7180;BME280;3631;42.152;24.756;2023-03-04T09:14:54;99499.59;;;8.76;100.00
7180;BME280;3631;42.152;24.756;2023-03-04T09:17:20;99505.31;;;8.91;100.00
7180;BME280;3631;42.152;24.756;2023-03-04T09:19:49;99496.25;;;9.09;100.00
7180;BME280;3631;42.152;24.756;2023-03-04T09:22:16;99485.75;;;9.15;100.00
7180;BME280;3631;42.152;24.756;2023-03-04T09:24:43;99491.69;;;9.20;100.00
7180;BME280;3631;42.152;24.756;2023-03-04T09:27:10;99497.34;;;9.36;100.00
7180;BME280;3631;42.152;24.756;2023-03-04T09:29:36;99490.00;;;9.53;100.00
7180;BME280;3631;42.152;24.756;2023-03-04T09:32:04;99488.88;;;9.63;100.00
7180;BME280;3631;42.152;24.756;2023-03-04T09:34:31;99493.50;;;9.51;100.00
7180;BME280;3631;42.152;24.756;2023-03-04T09:36:59;99484.13;;;9.46;100.00
7180;BME280;3631;42.152;24.756;2023-03-04T09:39:26;99490.84;;;9.54;100.00
7180;BME280;3631;42.152;24.756;2023-03-04T09:41:55;99487.66;;;9.78;100.00
7180;BME280;3631;42.152;24.756;2023-03-04T09:44:26;99488.72;;;10.03;100.00
7180;BME280;3631;42.152;24.756;2023-03-04T09:46:56;99489.59;;;10.02;100.00
7180;BME280;3631;42.152;24.756;2023-03-04T09:49:25;99485.03;;;10.10;100.00
7180;BME280;3631;42.152;24.756;2023-03-04T09:51:56;99487.78;;;10.38;100.00
7180;BME280;3631;42.152;24.756;2023-03-04T09:54:52;99486.91;;;10.38;100.00
7180;BME280;3631;42.152;24.756;2023-03-04T09:57:26;99482.81;;;10.60;100.00
7180;BME280;3631;42.152;24.756;2023-03-04T10:00:04;99487.56;;;10.74;100.00
7180;BME280;3631;42.152;24.756;2023-03-04T10:02:43;99479.53;;;10.83;100.00
7180;BME280;3631;42.152;24.756;2023-03-04T10:05:15;99479.03;;;10.98;100.00
7180;BME280;3631;42.152;24.756;2023-03-04T10:07:46;99473.94;;;11.23;100.00
7180;BME280;3631;42.152;24.756;2023-03-04T10:10:19;99477.72;;;11.13;100.00
7180;BME280;3631;42.152;24.756;2023-03-04T10:12:48;99478.59;;;11.12;100.00
7180;BME280;3631;42.152;24.756;2023-03-04T10:15:22;99470.91;;;11.09;100.00
7180;BME280;3631;42.152;24.756;2023-03-04T10:17:53;99466.47;;;11.12;100.00
7180;BME280;3631;42.152;24.756;2023-03-04T10:20:24;99472.34;;;11.17;100.00
7180;BME280;3631;42.152;24.756;2023-03-04T10:22:57;99462.16;;;11.39;100.00
7180;BME280;3631;42.152;24.756;2023-03-04T10:25:28;99452.28;;;11.22;100.00
7180;BME280;3631;42.152;24.756;2023-03-04T10:27:58;99459.03;;;11.28;100.00
7180;BME280;3631;42.152;24.756;2023-03-04T10:30:35;99464.63;;;11.42;100.00
7180;BME280;3631;42.152;24.756;2023-03-04T10:33:11;99450.59;;;11.48;100.00
7180;BME280;3631;42.152;24.756;2023-03-04T10:35:41;99443.41;;;11.54;100.00
7180;BME280;3631;42.152;24.756;2023-03-04T10:38:11;99441.00;;;11.50;100.00
7180;BME280;3631;42.152;24.756;2023-03-04T10:40:40;99423.69;;;11.49;100.00
7180;BME280;3631;42.152;24.756;2023-03-04T10:43:14;99426.00;;;11.32;100.00
7180;BME280;3631;42.152;24.756;2023-03-04T10:45:41;99425.63;;;11.42;100.00
7180;BME280;3631;42.152;24.756;2023-03-04T10:48:18;99423.47;;;11.55;100.00
7180;BME280;3631;42.152;24.756;2023-03-04T10:50:46;99412.31;;;11.51;100.00
7180;BME280;3631;42.152;24.756;2023-03-04T10:53:24;99412.97;;;11.58;100.00
7180;BME280;3631;42.152;24.756;2023-03-04T10:55:55;99414.78;;;11.56;100.00
7180;BME280;3631;42.152;24.756;2023-03-04T10:58:22;99405.75;;;11.41;100.00
7180;BME280;3631;42.152;24.756;2023-03-04T11:00:59;99406.41;;;11.48;100.00
7180;BME280;3631;42.152;24.756;2023-03-04T11:03:32;99400.25;;;11.50;100.00
7180;BME280;3631;42.152;24.756;2023-03-04T11:06:04;99397.09;;;11.41;100.00
7180;BME280;3631;42.152;24.756;2023-03-04T11:08:31;99392.75;;;11.16;100.00
7180;BME280;3631;42.152;24.756;2023-03-04T11:11:00;99390.38;;;11.09;100.00
7180;BME280;3631;42.152;24.756;2023-03-04T11:13:28;99380.63;;;11.17;100.00
7180;BME280;3631;42.152;24.756;2023-03-04T11:15:57;99357.50;;;11.08;100.00
7180;BME280;3631;42.152;24.756;2023-03-04T11:18:29;99369.16;;;11.22;100.00
7180;BME280;3631;42.152;24.756;2023-03-04T11:21:01;99360.13;;;11.33;100.00
7180;BME280;3631;42.152;24.756;2023-03-04T11:23:33;99355.88;;;11.30;100.00
7180;BME280;3631;42.152;24.756;2023-03-04T11:26:05;99349.22;;;11.48;100.00
7180;BME280;3631;42.152;24.756;2023-03-04T11:28:41;99346.56;;;11.49;100.00
7180;BME280;3631;42.152;24.756;2023-03-04T11:31:13;99351.59;;;11.54;100.00
7180;BME280;3631;42.152;24.756;2023-03-04T11:33:46;99352.91;;;11.65;100.00
7180;BME280;3631;42.152;24.756;2023-03-04T11:36:24;99349.09;;;11.76;100.00
7180;BME280;3631;42.152;24.756;2023-03-04T11:38:54;99344.66;;;11.79;100.00
7180;BME280;3631;42.152;24.756;2023-03-04T11:41:27;99341.00;;;11.85;100.00
7180;BME280;3631;42.152;24.756;2023-03-04T11:43:57;99338.41;;;11.85;100.00
7180;BME280;3631;42.152;24.756;2023-03-04T11:52:36;99320.81;;;11.91;100.00
7180;BME280;3631;42.152;24.756;2023-03-04T11:55:21;99320.06;;;11.88;100.00
7180;BME280;3631;42.152;24.756;2023-03-04T11:58:00;99319.25;;;11.86;100.00
7180;BME280;3631;42.152;24.756;2023-03-04T12:00:35;99318.97;;;11.70;100.00
7180;BME280;3631;42.152;24.756;2023-03-04T12:03:29;99320.97;;;11.39;100.00
7180;BME280;3631;42.152;24.756;2023-03-04T12:06:04;99318.38;;;11.39;100.00
7180;BME280;3631;42.152;24.756;2023-03-04T12:08:58;99324.09;;;11.48;100.00
7180;BME280;3631;42.152;24.756;2023-03-04T12:11:34;99323.56;;;11.39;100.00
7180;BME280;3631;42.152;24.756;2023-03-04T12:14:21;99309.72;;;11.38;100.00
7180;BME280;3631;42.152;24.756;2023-03-04T12:17:21;99307.72;;;11.70;100.00
7180;BME280;3631;42.152;24.756;2023-03-04T12:20:17;99306.09;;;11.90;100.00
7180;BME280;3631;42.152;24.756;2023-03-04T12:22:50;99303.47;;;12.14;100.00
7180;BME280;3631;42.152;24.756;2023-03-04T12:25:39;99300.13;;;12.10;100.00
7180;BME280;3631;42.152;24.756;2023-03-04T12:28:25;99302.72;;;12.10;100.00
7180;BME280;3631;42.152;24.756;2023-03-04T12:34:29;99302.13;;;12.04;100.00
7180;BME280;3631;42.152;24.756;2023-03-04T12:39:58;99282.69;;;11.90;100.00
7180;BME280;3631;42.152;24.756;2023-03-04T12:42:38;99284.44;;;11.90;100.00
7180;BME280;3631;42.152;24.756;2023-03-04T12:45:15;99274.19;;;11.85;100.00
7180;BME280;3631;42.152;24.756;2023-03-04T12:47:51;99277.84;;;11.81;100.00
7180;BME280;3631;42.152;24.756;2023-03-04T12:50:30;99271.53;;;11.87;100.00
7180;BME280;3631;42.152;24.756;2023-03-04T12:53:10;99269.13;;;12.06;100.00
7180;BME280;3631;42.152;24.756;2023-03-04T12:55:41;99271.28;;;12.38;100.00
7180;BME280;3631;42.152;24.756;2023-03-04T12:58:14;99262.09;;;12.51;100.00
7180;BME280;3631;42.152;24.756;2023-03-04T13:00:52;99268.69;;;12.38;100.00
7180;BME280;3631;42.152;24.756;2023-03-04T13:03:27;99262.38;;;12.44;100.00
7180;BME280;3631;42.152;24.756;2023-03-04T13:06:10;99248.72;;;12.39;100.00
7180;BME280;3631;42.152;24.756;2023-03-04T13:08:49;99252.34;;;12.34;100.00
7180;BME280;3631;42.152;24.756;2023-03-04T13:11:42;99246.97;;;12.39;100.00
7180;BME280;3631;42.152;24.756;2023-03-04T13:14:23;99250.50;;;12.58;100.00
7180;BME280;3631;42.152;24.756;2023-03-04T13:16:51;99239.91;;;12.63;100.00
7180;BME280;3631;42.152;24.756;2023-03-04T13:19:50;99240.25;;;12.54;100.00
7180;BME280;3631;42.152;24.756;2023-03-04T13:22:29;99249.06;;;12.51;100.00
7180;BME280;3631;42.152;24.756;2023-03-04T13:25:03;99241.72;;;12.61;100.00
7180;BME280;3631;42.152;24.756;2023-03-04T13:27:49;99235.63;;;12.82;100.00
7180;BME280;3631;42.152;24.756;2023-03-04T13:30:42;99239.47;;;12.94;100.00
7180;BME280;3631;42.152;24.756;2023-03-04T13:33:44;99227.72;;;13.04;100.00
7180;BME280;3631;42.152;24.756;2023-03-04T13:36:52;99229.59;;;13.00;100.00